CZ-0072 weather

BURANOS Aires UL
Central Bohemian Region, Czechia

Public forecast

Using degrees Celsius for public forecast. Weather courtesy of forecast.io.

METAR (pilot weather report)

Closest report is Václav Havel Airport Prague, 10.2 nm (18.8 km) ENE. Retrieved 2019/03/20 23:00 UTC (3 minutes ago):

LKPR 202300Z 22006KT CAVOK 02/M04 Q1034 NOSIG

TAF (pilot weather forecast)

Forecast is more than 12 hours old.

Closest forecast is Václav Havel Airport Prague, 10.2 nm (18.8 km) ENE. Retrieved 2019/03/19 12:11 UTC (1 day ago):

TAF LKPR 191100Z 1912/2018 28010KT 9999 SCT040 PROB30 TEMPO 1912/1918 32014G24KT 9999 SHRA BKN040 BECMG 1918/1920 24006KT CAVOK